createdAt,value
2018-09-02T00:02:02.855Z,12.40
2018-09-02T00:04:31.768Z,12.40
2018-09-02T00:07:00.574Z,12.50
2018-09-02T00:09:29.395Z,12.60
2018-09-02T00:11:58.466Z,12.70
2018-09-02T00:14:27.291Z,12.70
2018-09-02T00:16:56.120Z,12.80
2018-09-02T00:19:25.339Z,12.90
2018-09-02T00:21:54.155Z,13.00
2018-09-02T00:24:22.963Z,13.10
2018-09-02T00:26:52.063Z,13.10
2018-09-02T00:29:20.878Z,13.10
2018-09-02T00:31:49.707Z,13.10
2018-09-02T00:34:18.790Z,13.20
2018-09-02T00:36:47.590Z,13.10
2018-09-02T00:39:16.395Z,13.10
2018-09-02T00:41:45.315Z,13.20
2018-09-02T00:44:14.290Z,13.20
2018-09-02T00:46:43.148Z,13.20
2018-09-02T00:49:12.352Z,13.10
2018-09-02T00:51:41.147Z,13.10
2018-09-02T00:54:10.006Z,13.00
2018-09-02T00:56:39.339Z,13.00
2018-09-02T00:59:08.132Z,13.00
2018-09-02T01:01:36.945Z,12.90
2018-09-02T01:04:06.659Z,12.90
2018-09-02T01:06:35.458Z,12.80
2018-09-02T01:09:04.840Z,12.70
2018-09-02T01:11:34.234Z,12.80
2018-09-02T01:14:03.070Z,12.70
2018-09-02T01:16:32.450Z,12.70
2018-09-02T01:19:01.441Z,12.70
2018-09-02T01:21:30.247Z,12.60
2018-09-02T01:23:59.218Z,12.60
2018-09-02T01:26:28.154Z,12.60
2018-09-02T01:28:56.970Z,12.60
2018-09-02T01:31:25.819Z,12.70
2018-09-02T01:33:55.111Z,12.70
2018-09-02T01:36:23.943Z,12.60
2018-09-02T01:38:52.762Z,12.70
2018-09-02T01:41:21.751Z,12.70
2018-09-02T01:43:50.568Z,12.80
2018-09-02T01:46:19.411Z,12.90
2018-09-02T01:48:48.347Z,12.90
2018-09-02T01:51:17.335Z,12.90
2018-09-02T01:53:46.172Z,12.90
2018-09-02T01:56:15.137Z,12.90
2018-09-02T01:58:43.930Z,13.00
2018-09-02T02:01:12.748Z,13.00
2018-09-02T02:03:42.106Z,13.10
2018-09-02T02:06:11.102Z,13.10
2018-09-02T02:08:39.911Z,13.10
2018-09-02T02:11:09.139Z,13.10
2018-09-02T02:13:37.930Z,13.10
2018-09-02T02:16:07.057Z,13.10
2018-09-02T02:18:36.005Z,13.20
2018-09-02T02:21:04.819Z,13.20
2018-09-02T02:23:34.098Z,13.20
2018-09-02T02:26:03.110Z,13.20
2018-09-02T02:28:31.887Z,13.20
2018-09-02T02:31:00.728Z,13.20
2018-09-02T02:33:30.027Z,13.20
2018-09-02T02:35:58.858Z,13.10
2018-09-02T02:38:28.051Z,13.10
2018-09-02T02:40:57.007Z,13.10
2018-09-02T02:43:25.887Z,13.00
2018-09-02T02:45:54.758Z,13.00
2018-09-02T02:48:23.736Z,12.90
2018-09-02T02:50:52.526Z,12.90
2018-09-02T02:53:21.619Z,12.90
2018-09-02T02:55:50.750Z,12.90
2018-09-02T02:58:19.587Z,12.90
2018-09-02T03:00:48.399Z,12.90
2018-09-02T03:03:17.390Z,12.90
2018-09-02T03:05:46.230Z,12.90
2018-09-02T03:08:15.126Z,12.80
2018-09-02T03:10:44.200Z,12.80
2018-09-02T03:13:13.034Z,12.80
2018-09-02T03:15:41.874Z,12.80
2018-09-02T03:18:10.807Z,12.60
2018-09-02T03:20:39.606Z,12.60
2018-09-02T03:23:08.404Z,12.50
2018-09-02T03:25:37.431Z,12.40
2018-09-02T03:28:06.387Z,12.40
2018-09-02T03:30:35.213Z,12.40
2018-09-02T03:33:04.135Z,12.40
2018-09-02T03:35:33.039Z,12.40
2018-09-02T03:38:01.920Z,12.40
2018-09-02T03:40:30.835Z,12.30
2018-09-02T03:42:59.623Z,12.30
2018-09-02T03:45:28.546Z,12.30
2018-09-02T03:47:58.316Z,12.30
2018-09-02T03:50:27.202Z,12.30
2018-09-02T03:52:56.036Z,12.20
2018-09-02T03:55:25.327Z,12.20
2018-09-02T03:57:54.173Z,12.20
2018-09-02T04:00:23.515Z,12.10
2018-09-02T04:02:52.481Z,12.10
2018-09-02T04:05:21.306Z,12.00
2018-09-02T04:07:50.138Z,12.00
2018-09-02T04:10:19.191Z,11.90
2018-09-02T04:12:48.034Z,11.90
2018-09-02T04:15:16.863Z,11.90
2018-09-02T04:17:46.187Z,11.80
2018-09-02T04:20:18.678Z,11.80
2018-09-02T04:22:47.566Z,11.80
2018-09-02T04:25:16.371Z,11.80
2018-09-02T04:27:45.221Z,11.70
2018-09-02T04:30:14.210Z,11.70
2018-09-02T04:32:43.023Z,11.70
2018-09-02T04:35:11.852Z,11.70
2018-09-02T04:37:40.849Z,11.60
2018-09-02T04:40:09.695Z,11.60
2018-09-02T04:42:38.542Z,11.60
2018-09-02T04:45:07.609Z,11.60
2018-09-02T04:47:36.427Z,11.60
2018-09-02T04:50:13.999Z,11.60
2018-09-02T04:52:42.827Z,11.60
2018-09-02T04:55:11.859Z,11.50
2018-09-02T04:57:41.699Z,11.40
2018-09-02T05:00:10.628Z,11.30
2018-09-02T05:02:39.519Z,11.30
2018-09-02T05:05:08.602Z,11.40
2018-09-02T05:07:37.498Z,11.50
2018-09-02T05:10:07.063Z,11.50
2018-09-02T05:12:36.308Z,11.50
2018-09-02T05:15:05.352Z,11.50
2018-09-02T05:17:34.786Z,11.50
2018-09-02T05:20:03.673Z,11.60
2018-09-02T05:22:32.628Z,11.70
2018-09-02T05:25:01.469Z,11.80
2018-09-02T05:27:30.487Z,11.90
2018-09-02T05:29:59.295Z,12.00
2018-09-02T05:32:28.166Z,12.10
2018-09-02T05:34:57.142Z,12.10
2018-09-02T05:37:25.975Z,12.20
2018-09-02T05:39:54.779Z,12.30
2018-09-02T05:42:23.695Z,12.40
2018-09-02T05:44:52.524Z,12.50
2018-09-02T05:47:21.331Z,12.60
2018-09-02T05:49:50.607Z,12.70
2018-09-02T05:52:19.415Z,12.70
2018-09-02T05:54:48.210Z,12.80
2018-09-02T05:57:17.090Z,12.80
2018-09-02T05:59:45.982Z,12.90
2018-09-02T06:02:14.783Z,12.90
2018-09-02T06:04:43.722Z,13.00
2018-09-02T06:07:12.522Z,13.00
2018-09-02T06:09:41.335Z,13.10
2018-09-02T06:12:10.291Z,13.20
2018-09-02T06:14:39.144Z,13.30
2018-09-02T06:17:08.119Z,13.40
2018-09-02T06:19:37.274Z,13.50
2018-09-02T06:22:06.110Z,13.50
2018-09-02T06:24:34.934Z,13.60
2018-09-02T06:27:03.998Z,13.60
2018-09-02T06:29:32.869Z,13.70
2018-09-02T06:32:01.768Z,13.80
2018-09-02T06:34:30.776Z,13.90
2018-09-02T06:36:59.611Z,13.90
2018-09-02T06:39:28.523Z,14.00
2018-09-02T06:41:57.587Z,14.10
2018-09-02T06:44:26.423Z,14.20
2018-09-02T06:46:55.250Z,14.20
2018-09-02T06:49:24.159Z,14.30
2018-09-02T06:51:53.119Z,14.40
2018-09-02T06:54:22.286Z,14.40
2018-09-02T06:56:51.243Z,14.50
2018-09-02T06:59:20.075Z,14.60
2018-09-02T07:01:49.075Z,14.70
2018-09-02T07:04:18.215Z,14.80
2018-09-02T07:06:47.056Z,14.90
2018-09-02T07:09:15.887Z,15.00
2018-09-02T07:11:44.919Z,15.10
2018-09-02T07:14:13.781Z,15.20
2018-09-02T07:16:42.665Z,15.30
2018-09-02T07:19:11.859Z,15.40
2018-09-02T07:21:40.740Z,15.50
2018-09-02T07:24:09.719Z,15.50
2018-09-02T07:26:38.926Z,15.70
2018-09-02T07:29:07.918Z,15.80
2018-09-02T07:31:37.087Z,15.80
2018-09-02T07:34:06.042Z,16.00
2018-09-02T07:36:34.867Z,16.10
2018-09-02T07:39:04.135Z,16.20
2018-09-02T07:41:33.165Z,16.30
2018-09-02T07:44:02.091Z,16.40
2018-09-02T07:46:30.922Z,16.40
2018-09-02T07:49:00.352Z,16.50
2018-09-02T07:51:29.472Z,16.60
2018-09-02T07:53:58.286Z,16.70
2018-09-02T07:56:27.239Z,16.70
2018-09-02T07:58:56.098Z,16.80
2018-09-02T08:01:24.961Z,16.90
2018-09-02T08:03:54.289Z,17.00
2018-09-02T08:06:23.139Z,17.00
2018-09-02T08:08:52.062Z,17.10
2018-09-02T08:11:21.083Z,17.20
2018-09-02T08:13:49.955Z,17.30
2018-09-02T08:16:19.088Z,17.30
2018-09-02T08:18:48.163Z,17.30
2018-09-02T08:21:17.035Z,17.40
2018-09-02T08:23:45.989Z,17.60
2018-09-02T08:26:14.979Z,17.70
2018-09-02T08:28:44.035Z,17.90
2018-09-02T08:31:12.964Z,17.90
2018-09-02T08:33:42.011Z,17.90
2018-09-02T08:36:10.875Z,18.00
2018-09-02T08:38:39.731Z,18.10
2018-09-02T08:41:08.880Z,18.20
2018-09-02T08:43:37.720Z,18.20
2018-09-02T08:46:06.579Z,18.30
2018-09-02T08:48:35.500Z,18.50
2018-09-02T08:51:04.726Z,18.50
2018-09-02T08:53:33.559Z,18.70
2018-09-02T08:56:03.383Z,18.70
2018-09-02T08:58:32.224Z,18.80
2018-09-02T09:01:01.064Z,18.90
2018-09-02T09:03:30.063Z,18.90
2018-09-02T09:05:59.045Z,18.90
2018-09-02T09:08:28.163Z,19.00
2018-09-02T09:10:58.234Z,19.10
2018-09-02T09:13:27.148Z,19.10
2018-09-02T09:15:56.059Z,19.10
2018-09-02T09:18:25.093Z,19.10
2018-09-02T09:20:53.938Z,19.30
2018-09-02T09:23:22.861Z,19.40
2018-09-02T09:25:51.708Z,19.30
2018-09-02T09:28:20.607Z,19.40
2018-09-02T09:30:49.483Z,19.40
2018-09-02T09:33:18.515Z,19.40
2018-09-02T09:35:47.334Z,19.50
2018-09-02T09:38:16.220Z,19.50
2018-09-02T09:40:45.343Z,19.50
2018-09-02T09:43:14.718Z,19.60
2018-09-02T09:45:43.791Z,19.70
2018-09-02T09:48:12.776Z,19.80
2018-09-02T09:50:41.652Z,19.90
2018-09-02T09:53:10.583Z,20.00
2018-09-02T09:55:39.598Z,19.90
2018-09-02T09:58:08.628Z,19.90
2018-09-02T10:00:43.083Z,20.00
2018-09-02T10:03:12.293Z,19.90
2018-09-02T10:05:41.126Z,20.10
2018-09-02T10:08:10.238Z,20.10
2018-09-02T10:10:39.973Z,20.00
2018-09-02T10:13:08.779Z,20.00
2018-09-02T10:15:38.403Z,20.10
2018-09-02T10:18:07.557Z,20.20
2018-09-02T10:20:36.491Z,20.10
2018-09-02T10:23:05.484Z,20.10
2018-09-02T10:25:34.422Z,20.20
2018-09-02T10:28:03.328Z,20.20
2018-09-02T10:30:32.151Z,20.40
2018-09-02T10:33:01.320Z,20.40
2018-09-02T10:35:30.125Z,20.50
2018-09-02T10:37:58.952Z,20.50
2018-09-02T10:40:27.994Z,20.60
2018-09-02T10:42:56.804Z,20.70
2018-09-02T10:45:25.715Z,20.80
2018-09-02T10:47:54.932Z,20.70
2018-09-02T10:50:23.768Z,20.80
2018-09-02T10:52:52.607Z,20.80
2018-09-02T10:55:21.606Z,20.80
2018-09-02T10:57:50.503Z,20.80
2018-09-02T11:00:20.042Z,20.80
2018-09-02T11:02:49.196Z,20.80
2018-09-02T11:05:18.456Z,20.90
2018-09-02T11:07:47.339Z,21.00
2018-09-02T11:10:16.717Z,21.10
2018-09-02T11:12:45.526Z,21.30
2018-09-02T11:15:14.451Z,21.50
2018-09-02T11:17:43.527Z,21.40
2018-09-02T11:20:12.487Z,21.50
2018-09-02T11:22:41.539Z,21.40
2018-09-02T11:25:10.568Z,21.50
2018-09-02T11:27:39.392Z,21.70
2018-09-02T11:30:08.440Z,21.70
2018-09-02T11:32:37.483Z,21.60
2018-09-02T11:35:06.507Z,21.60
2018-09-02T11:37:35.346Z,21.80
2018-09-02T11:40:04.855Z,21.80
2018-09-02T11:42:33.688Z,21.90
2018-09-02T11:45:02.577Z,22.00
2018-09-02T11:47:31.507Z,22.00
2018-09-02T11:50:00.324Z,22.00
2018-09-02T11:52:29.174Z,22.00
2018-09-02T11:54:58.179Z,22.10
2018-09-02T11:57:27.203Z,22.10
2018-09-02T11:59:56.075Z,22.20
2018-09-02T12:02:25.303Z,22.20
2018-09-02T12:04:56.770Z,22.40
2018-09-02T12:07:26.661Z,22.50
2018-09-02T12:09:55.623Z,22.40
2018-09-02T12:12:28.929Z,22.60
2018-09-02T12:14:58.178Z,22.60
2018-09-02T12:17:32.881Z,22.50
2018-09-02T12:22:46.855Z,22.80
2018-09-02T12:25:16.623Z,22.80
2018-09-02T12:27:46.122Z,22.80
2018-09-02T12:30:14.919Z,23.00
2018-09-02T12:32:43.951Z,23.10
2018-09-02T12:35:12.776Z,25.10
2018-09-02T12:37:41.590Z,27.90
2018-09-02T12:40:10.646Z,30.40
2018-09-02T12:42:39.557Z,32.10
2018-09-02T12:45:08.615Z,33.80
2018-09-02T12:47:37.856Z,34.90
2018-09-02T12:50:06.663Z,35.60
2018-09-02T12:52:35.495Z,36.80
2018-09-02T12:55:04.627Z,37.80
2018-09-02T12:57:33.443Z,38.00
2018-09-02T13:00:02.261Z,37.60
2018-09-02T13:02:31.888Z,37.40
2018-09-02T13:05:00.739Z,38.10
2018-09-02T13:07:29.543Z,38.10
2018-09-02T13:09:58.576Z,38.40
2018-09-02T13:12:27.385Z,38.10
2018-09-02T13:14:56.478Z,38.60
2018-09-02T13:17:25.564Z,38.40
2018-09-02T13:19:54.563Z,39.10
2018-09-02T13:22:23.362Z,39.30
2018-09-02T13:24:52.306Z,38.50
2018-09-02T13:27:21.322Z,38.10
2018-09-02T13:29:50.159Z,38.00
2018-09-02T13:32:19.039Z,37.30
2018-09-02T13:34:47.883Z,37.70
2018-09-02T13:37:16.745Z,37.20
2018-09-02T13:39:45.727Z,37.60
2018-09-02T13:42:15.062Z,37.60
2018-09-02T13:44:43.918Z,36.60
2018-09-02T13:47:12.870Z,36.60
2018-09-02T13:49:41.710Z,36.80
2018-09-02T13:52:10.543Z,37.20
2018-09-02T13:54:39.637Z,36.20
2018-09-02T13:57:08.422Z,36.90
2018-09-02T13:59:37.272Z,36.70
2018-09-02T14:02:06.919Z,35.90
2018-09-02T14:04:35.737Z,34.90
2018-09-02T14:07:04.754Z,34.80
2018-09-02T14:09:33.802Z,34.40
2018-09-02T14:12:02.611Z,34.70
2018-09-02T14:14:31.547Z,34.50
2018-09-02T14:17:01.203Z,34.70
2018-09-02T14:19:30.079Z,35.70
2018-09-02T14:21:58.891Z,35.40
2018-09-02T14:24:27.851Z,35.10
2018-09-02T14:26:56.691Z,34.90
2018-09-02T14:29:25.926Z,34.70
2018-09-02T14:31:55.116Z,33.90
2018-09-02T14:34:24.111Z,33.90
2018-09-02T14:36:52.919Z,33.10
2018-09-02T14:39:22.255Z,32.10
2018-09-02T14:41:51.059Z,30.60
2018-09-02T14:44:19.907Z,29.10
2018-09-02T14:46:48.871Z,28.10
2018-09-02T14:49:17.671Z,26.80
2018-09-02T14:51:46.552Z,26.00
2018-09-02T14:54:16.994Z,25.40
2018-09-02T14:56:49.122Z,24.90
2018-09-02T14:59:20.362Z,24.60
2018-09-02T15:01:52.068Z,24.00
2018-09-02T15:04:23.704Z,23.70
2018-09-02T15:06:56.453Z,23.70
2018-09-02T15:09:26.854Z,23.40
2018-09-02T15:11:56.704Z,23.40
2018-09-02T15:14:25.656Z,23.00
2018-09-02T15:16:54.807Z,22.70
2018-09-02T15:19:23.803Z,22.70
2018-09-02T15:21:52.647Z,22.50
2018-09-02T15:24:21.824Z,22.50
2018-09-02T15:27:21.351Z,22.60
2018-09-02T15:29:50.336Z,22.70
2018-09-02T15:32:19.219Z,22.60
2018-09-02T15:34:48.406Z,22.40
2018-09-02T15:37:17.350Z,22.20
2018-09-02T15:39:46.190Z,22.10
2018-09-02T15:42:15.006Z,21.90
2018-09-02T15:44:44.175Z,21.70
2018-09-02T15:47:13.032Z,21.50
2018-09-02T15:49:41.947Z,21.40
2018-09-02T15:52:10.987Z,21.30
2018-09-02T15:54:39.997Z,21.10
2018-09-02T15:57:09.175Z,21.00
2018-09-02T15:59:38.123Z,20.90
2018-09-02T16:02:07.033Z,20.80
2018-09-02T16:04:35.887Z,20.60
2018-09-02T16:07:04.991Z,20.50
2018-09-02T16:09:33.835Z,20.50
2018-09-02T16:12:02.858Z,20.40
2018-09-02T16:14:31.855Z,20.30
2018-09-02T16:17:00.796Z,20.30
2018-09-02T16:19:29.727Z,20.30
2018-09-02T16:21:58.690Z,20.30
2018-09-02T16:24:27.760Z,20.30
2018-09-02T16:26:56.655Z,20.30
2018-09-02T16:29:25.660Z,20.30
2018-09-02T16:31:54.504Z,20.40
2018-09-02T16:34:23.327Z,20.50
2018-09-02T16:36:53.393Z,20.60
2018-09-02T16:39:22.206Z,20.60
2018-09-02T16:41:51.095Z,20.70
2018-09-02T16:44:20.472Z,20.70
2018-09-02T16:46:49.360Z,20.80
2018-09-02T16:49:18.235Z,20.80
2018-09-02T16:51:47.344Z,20.80
2018-09-02T16:54:16.212Z,20.80
2018-09-02T16:56:45.432Z,20.70
2018-09-02T16:59:14.469Z,20.60
2018-09-02T17:01:43.364Z,20.40
2018-09-02T17:04:12.336Z,20.30
2018-09-02T17:06:41.301Z,20.10
2018-09-02T17:09:11.703Z,19.90
2018-09-02T17:11:40.965Z,19.80
2018-09-02T17:14:10.284Z,19.50
2018-09-02T17:16:39.091Z,19.50
2018-09-02T17:19:13.958Z,19.40
2018-09-02T17:21:43.087Z,19.30
2018-09-02T17:24:11.972Z,19.30
2018-09-02T17:26:41.117Z,19.20
2018-09-02T17:29:10.108Z,19.10
2018-09-02T17:31:38.964Z,18.90
2018-09-02T17:34:07.819Z,18.80
2018-09-02T17:36:37.043Z,18.60
2018-09-02T17:39:08.244Z,18.60
2018-09-02T17:41:37.064Z,18.40
2018-09-02T17:44:06.672Z,18.30
2018-09-02T17:46:35.495Z,18.20
2018-09-02T17:49:04.340Z,18.00
2018-09-02T17:51:33.331Z,17.90
2018-09-02T17:54:02.211Z,17.80
2018-09-02T17:56:31.028Z,17.60
2018-09-02T17:58:59.992Z,17.50
2018-09-02T18:01:28.892Z,17.40
2018-09-02T18:03:57.750Z,17.30
2018-09-02T18:06:26.711Z,17.20
2018-09-02T18:08:55.562Z,17.10
2018-09-02T18:11:24.391Z,17.00
2018-09-02T18:13:53.283Z,16.80
2018-09-02T18:16:22.184Z,16.70
2018-09-02T18:18:51.039Z,16.70
2018-09-02T18:21:20.007Z,16.60
2018-09-02T18:23:48.815Z,16.50
2018-09-02T18:26:17.646Z,16.50
2018-09-02T18:28:48.211Z,16.40
2018-09-02T18:31:17.014Z,16.30
2018-09-02T18:33:45.843Z,16.20
2018-09-02T18:36:14.842Z,16.10
2018-09-02T18:38:43.649Z,16.10
2018-09-02T18:41:12.540Z,16.00
2018-09-02T18:43:41.415Z,15.90
2018-09-02T18:46:10.263Z,15.90
2018-09-02T18:48:39.083Z,15.80
2018-09-02T18:51:08.018Z,15.70
2018-09-02T18:53:36.794Z,15.60
2018-09-02T18:56:05.859Z,15.50
2018-09-02T18:58:35.158Z,15.50
2018-09-02T19:01:04.033Z,15.40
2018-09-02T19:03:32.952Z,15.40
2018-09-02T19:06:01.849Z,15.40
2018-09-02T19:08:30.658Z,15.50
2018-09-02T19:10:59.520Z,15.40
2018-09-02T19:13:28.410Z,15.40
2018-09-02T19:15:57.344Z,15.40
2018-09-02T19:18:26.162Z,15.40
2018-09-02T19:20:55.128Z,15.30
2018-09-02T19:23:24.001Z,15.30
2018-09-02T19:25:52.860Z,15.20
2018-09-02T19:28:22.259Z,15.20
2018-09-02T19:30:51.587Z,15.10
2018-09-02T19:33:20.412Z,15.10
2018-09-02T19:35:49.406Z,14.90
2018-09-02T19:38:18.226Z,14.90
2018-09-02T19:40:47.054Z,14.90
2018-09-02T19:43:16.203Z,14.80
2018-09-02T19:45:45.036Z,14.80
2018-09-02T19:48:13.843Z,14.80
2018-09-02T19:50:42.770Z,14.80
2018-09-02T19:53:11.674Z,14.80
2018-09-02T19:55:40.910Z,14.70
2018-09-02T19:58:09.800Z,14.60
2018-09-02T20:00:38.636Z,14.60
2018-09-02T20:03:07.622Z,14.60
2018-09-02T20:05:36.623Z,14.60
2018-09-02T20:08:05.579Z,14.50
2018-09-02T20:10:34.387Z,14.50
2018-09-02T20:13:03.355Z,14.50
2018-09-02T20:15:32.245Z,14.40
2018-09-02T20:18:01.148Z,14.40
2018-09-02T20:20:30.136Z,14.40
2018-09-02T20:22:58.972Z,14.40
2018-09-02T20:25:27.803Z,14.40
2018-09-02T20:27:56.767Z,14.40
2018-09-02T20:30:25.594Z,14.30
2018-09-02T20:32:54.593Z,14.20
2018-09-02T20:35:23.519Z,14.20
2018-09-02T20:37:52.328Z,14.20
2018-09-02T20:40:21.126Z,14.20
2018-09-02T20:42:50.046Z,14.20
2018-09-02T20:45:19.026Z,14.10
2018-09-02T20:47:48.006Z,14.10
2018-09-02T20:50:16.999Z,14.10
2018-09-02T20:52:45.795Z,14.10
2018-09-02T20:55:14.591Z,14.10
2018-09-02T20:57:43.575Z,14.00
2018-09-02T21:00:12.471Z,14.00
2018-09-02T21:02:41.277Z,14.00
2018-09-02T21:05:10.406Z,14.00
2018-09-02T21:07:39.192Z,13.90
2018-09-02T21:10:08.059Z,13.90
2018-09-02T21:12:36.999Z,13.90
2018-09-02T21:15:06.083Z,13.90
2018-09-02T21:20:18.029Z,13.90
2018-09-02T21:22:46.846Z,13.80
2018-09-02T21:25:15.683Z,13.80
2018-09-02T21:27:44.610Z,13.80
2018-09-02T21:30:13.426Z,13.70
2018-09-02T21:32:42.235Z,13.70
2018-09-02T21:35:11.302Z,13.70
2018-09-02T21:37:40.142Z,13.70
2018-09-02T21:40:08.987Z,13.70
2018-09-02T21:42:38.321Z,13.70
2018-09-02T21:45:07.184Z,13.70
2018-09-02T21:47:35.990Z,13.60
2018-09-02T21:50:05.414Z,13.60
2018-09-02T21:52:34.602Z,13.60
2018-09-02T21:55:03.415Z,13.60
2018-09-02T21:57:32.343Z,13.60
2018-09-02T22:00:01.192Z,13.60
2018-09-02T22:02:30.010Z,13.60
2018-09-02T22:04:58.895Z,13.60
2018-09-02T22:07:28.006Z,13.60
2018-09-02T22:09:56.791Z,13.60
2018-09-02T22:12:25.896Z,13.50
2018-09-02T22:14:54.759Z,13.50
2018-09-02T22:17:23.551Z,13.50
2018-09-02T22:19:52.501Z,13.50
2018-09-02T22:22:21.307Z,13.50
2018-09-02T22:24:50.090Z,13.50
2018-09-02T22:27:19.271Z,13.40
2018-09-02T22:29:48.067Z,13.40
2018-09-02T22:32:16.847Z,13.30
2018-09-02T22:34:45.910Z,13.30
2018-09-02T22:37:14.936Z,13.30
2018-09-02T22:39:43.740Z,13.30
2018-09-02T22:42:12.679Z,13.30
2018-09-02T22:44:41.463Z,13.20
2018-09-02T22:47:10.299Z,13.20
2018-09-02T22:49:39.171Z,13.10
2018-09-02T22:52:07.969Z,13.10
2018-09-02T22:54:36.812Z,13.10
2018-09-02T22:57:05.931Z,13.10
2018-09-02T22:59:34.755Z,13.10
2018-09-02T23:02:03.536Z,13.10
2018-09-02T23:04:32.636Z,13.00
2018-09-02T23:07:01.443Z,13.00
2018-09-02T23:09:30.222Z,13.00
2018-09-02T23:11:59.167Z,13.00
2018-09-02T23:14:27.951Z,12.90
2018-09-02T23:16:56.765Z,12.90
2018-09-02T23:19:25.784Z,12.90
2018-09-02T23:21:54.853Z,12.90
2018-09-02T23:24:23.685Z,12.80
2018-09-02T23:26:52.707Z,12.80
2018-09-02T23:29:21.494Z,12.80
2018-09-02T23:31:50.296Z,12.80
2018-09-02T23:34:19.383Z,12.80
2018-09-02T23:36:48.278Z,12.70
2018-09-02T23:39:17.455Z,12.80
2018-09-02T23:41:46.366Z,12.80
2018-09-02T23:44:15.438Z,12.70
2018-09-02T23:46:44.234Z,12.70
2018-09-02T23:49:13.163Z,12.70
2018-09-02T23:51:42.055Z,12.60
2018-09-02T23:54:11.059Z,12.60
2018-09-02T23:56:40.211Z,12.60
2018-09-02T23:59:09.055Z,12.60
